createdAt,value
2022-08-16T00:02:52.043Z,6260.81689
2022-08-16T00:17:56.033Z,13715.83203
2022-08-16T00:32:59.744Z,8015.27979
2022-08-16T00:48:02.048Z,2959.32397
2022-08-16T01:03:31.822Z,2161.57617
2022-08-16T01:18:40.428Z,1500.50232
2022-08-16T01:33:44.631Z,1484.99316
2022-08-16T01:48:47.104Z,1457.85229
2022-08-16T02:03:50.558Z,923.75885
2022-08-16T02:18:54.070Z,715.35571
2022-08-16T02:33:57.909Z,500.16742
2022-08-16T02:49:00.388Z,269.47006
2022-08-16T03:04:39.566Z,63.00559
2022-08-16T03:20:00.249Z,8.72385
2022-08-16T03:35:04.996Z,0.96932
2022-08-16T03:50:25.291Z,0
2022-08-16T04:05:28.780Z,0
2022-08-16T04:20:33.853Z,0
2022-08-16T04:35:36.694Z,0
2022-08-16T04:50:43.555Z,0
2022-08-16T05:05:58.922Z,0
2022-08-16T05:21:10.931Z,0
2022-08-16T05:36:14.204Z,0
2022-08-16T05:51:35.287Z,0
2022-08-16T06:06:43.547Z,0
2022-08-16T06:22:00.283Z,0
2022-08-16T06:37:02.620Z,0
2022-08-16T06:52:05.693Z,0
2022-08-16T07:07:59.798Z,0
2022-08-16T07:23:02.572Z,0
2022-08-16T07:38:17.240Z,0
2022-08-16T07:53:22.741Z,0
2022-08-16T08:08:50.747Z,0
2022-08-16T08:23:54.782Z,0
2022-08-16T08:38:57.127Z,0
2022-08-16T08:54:01.397Z,0
2022-08-16T09:09:09.340Z,0
2022-08-16T09:24:39.106Z,0
2022-08-16T09:39:55.430Z,0
2022-08-16T09:54:57.842Z,0
2022-08-16T10:10:00.296Z,0
2022-08-16T10:25:02.550Z,0
2022-08-16T10:40:06.572Z,0
2022-08-16T10:55:41.080Z,0
2022-08-16T11:11:06.435Z,0
2022-08-16T11:26:23.920Z,0
2022-08-16T11:41:29.423Z,0
2022-08-16T11:56:51.449Z,0
2022-08-16T12:12:02.963Z,0.96932
2022-08-16T12:27:05.641Z,6.78522
2022-08-16T12:42:10.652Z,41.68062
2022-08-16T12:57:14.120Z,116.31801
2022-08-16T13:12:16.616Z,221.00421
2022-08-16T13:27:18.790Z,352.8313
2022-08-16T13:42:22.989Z,751.22046
2022-08-16T13:57:25.218Z,11226.62598
2022-08-16T14:12:56.199Z,1639.11462
2022-08-16T14:27:58.408Z,1103.0824
2022-08-16T14:43:05.734Z,3245.27246
2022-08-16T14:58:10.410Z,2021.99463
2022-08-16T15:13:21.406Z,2090.81616
2022-08-16T15:28:31.568Z,3224.91675
2022-08-16T15:43:39.220Z,4155.46094
2022-08-16T15:58:42.465Z,4623.64062
2022-08-16T16:13:45.556Z,7302.83203
2022-08-16T16:29:08.550Z,6111.54199
2022-08-16T16:44:18.281Z,5974.86816
2022-08-16T16:59:36.338Z,5876.96729
2022-08-16T17:14:38.689Z,4389.06592
2022-08-16T17:29:46.560Z,5058.86377
2022-08-16T17:44:48.911Z,5494.0874
2022-08-16T17:59:51.123Z,5703.45947
2022-08-16T18:14:58.182Z,5435.92822
2022-08-16T18:30:02.394Z,5021.06055
2022-08-16T18:45:04.669Z,5250.78857
2022-08-16T19:00:06.914Z,5647.23926
2022-08-16T19:15:12.007Z,4454.01025
2022-08-16T19:30:15.713Z,3686.31152
2022-08-16T19:45:17.927Z,5353.53613
2022-08-16T20:00:20.228Z,5843.04102
2022-08-16T20:15:26.717Z,4838.8291
2022-08-16T20:30:29.635Z,4343.5083
2022-08-16T20:45:31.854Z,4407.48291
2022-08-16T21:00:34.095Z,4396.8208
2022-08-16T21:15:36.365Z,5139.31738
2022-08-16T21:30:38.612Z,6291.83496
2022-08-16T21:45:40.808Z,7737.08594
2022-08-16T22:00:42.997Z,9367.47656
2022-08-16T22:15:45.269Z,11077.35156
2022-08-16T22:30:47.515Z,12405.31543
2022-08-16T22:45:49.734Z,13396.92676
2022-08-16T23:00:52.234Z,13957.19141
2022-08-16T23:15:54.458Z,14860.59473
2022-08-16T23:30:58.683Z,15884.19336
2022-08-16T23:46:00.910Z,16410.53125
